Time;durP1;ratioP1;P1;durP2;ratioP2;P2;SDS_P1;SDS_P2;PMS_P1;PMS_P2;Temp;Humidity;BMP_temperature;BMP_pressure;BME280_temperature;BME280_humidity;BME280_pressure;Samples;Min_cycle;Max_cycle;Signal;HPM_P1;HPM_P2
2020/12/08 00:01:24;;;;;;;10.00;5.65;;;;;;;;;;5034610;28;20022;-49
2020/12/08 00:03:50;;;;;;;9.45;5.60;;;;;;;;;;5034560;28;20029;-50
2020/12/08 00:06:16;;;;;;;8.95;5.60;;;;;;;;;;5034365;28;20029;-49
2020/12/08 00:08:42;;;;;;;8.95;5.68;;;;;;;;;;5034329;28;20057;-49
2020/12/08 00:11:12;;;;;;;9.20;5.88;;;;;;;;;;5035229;28;20592;-50
2020/12/08 00:13:39;;;;;;;8.55;5.43;;;;;;;;;;5034239;28;20029;-50
2020/12/08 00:16:05;;;;;;;8.90;5.72;;;;;;;;;;5034042;28;20042;-50
2020/12/08 00:18:32;;;;;;;9.05;5.25;;;;;;;;;;5034292;28;20067;-50
2020/12/08 00:20:58;;;;;;;8.55;5.80;;;;;;;;;;5047465;28;20068;-50
2020/12/08 00:23:24;;;;;;;8.60;5.30;;;;;;;;;;5033965;28;20473;-50
2020/12/08 00:25:50;;;;;;;8.30;5.25;;;;;;;;;;5034133;28;20564;-50
2020/12/08 00:28:16;;;;;;;8.82;5.82;;;;;;;;;;5038922;28;20044;-50
2020/12/08 00:30:42;;;;;;;8.88;5.70;;;;;;;;;;5042654;28;20029;-51
2020/12/08 00:33:08;;;;;;;8.82;5.65;;;;;;;;;;5034199;28;20100;-49
2020/12/08 00:35:34;;;;;;;9.27;5.72;;;;;;;;;;5037062;28;20450;-48
2020/12/08 00:38:00;;;;;;;10.02;6.10;;;;;;;;;;5052889;28;20021;-50
2020/12/08 00:40:26;;;;;;;10.10;5.82;;;;;;;;;;5049399;28;20017;-50
2020/12/08 00:42:52;;;;;;;9.52;6.00;;;;;;;;;;5037320;28;20427;-49
2020/12/08 00:45:18;;;;;;;8.32;5.53;;;;;;;;;;5047202;28;20542;-50
2020/12/08 00:47:47;;;;;;;11.38;6.20;;;;;;;;;;5033142;28;20033;-50
2020/12/08 00:50:13;;;;;;;10.10;5.85;;;;;;;;;;5033136;28;20104;-50
2020/12/08 00:52:39;;;;;;;10.30;5.53;;;;;;;;;;5037450;28;20032;-51
2020/12/08 00:55:05;;;;;;;8.75;5.45;;;;;;;;;;5041989;28;20037;-50
2020/12/08 00:57:31;;;;;;;9.45;5.38;;;;;;;;;;5033478;28;20026;-50
2020/12/08 00:59:57;;;;;;;9.10;5.63;;;;;;;;;;5034308;28;20075;-51
2020/12/08 01:02:23;;;;;;;11.80;5.95;;;;;;;;;;5033360;28;20064;-50
2020/12/08 01:04:49;;;;;;;9.93;5.68;;;;;;;;;;5033063;28;20033;-50
2020/12/08 01:07:15;;;;;;;8.45;5.68;;;;;;;;;;5033432;28;20022;-50
2020/12/08 01:09:42;;;;;;;9.88;6.00;;;;;;;;;;5037421;28;20064;-50
2020/12/08 01:12:08;;;;;;;8.52;5.45;;;;;;;;;;5042506;28;20026;-50
2020/12/08 01:14:34;;;;;;;10.80;5.57;;;;;;;;;;5032851;28;20022;-50
2020/12/08 01:17:04;;;;;;;9.25;5.47;;;;;;;;;;5033132;28;20041;-49
2020/12/08 01:19:30;;;;;;;8.32;5.20;;;;;;;;;;5037159;28;20025;-50
2020/12/08 01:21:56;;;;;;;10.40;5.30;;;;;;;;;;5040515;28;20029;-51
2020/12/08 01:24:22;;;;;;;7.53;4.85;;;;;;;;;;5052522;28;20473;-50
2020/12/08 01:26:48;;;;;;;8.15;5.25;;;;;;;;;;5053185;28;20401;-50
2020/12/08 01:29:14;;;;;;;6.90;4.55;;;;;;;;;;5052885;28;20492;-50
2020/12/08 01:31:40;;;;;;;8.10;4.68;;;;;;;;;;5052653;28;20154;-50
2020/12/08 01:34:07;;;;;;;7.90;4.57;;;;;;;;;;5052051;28;20096;-50
2020/12/08 01:36:34;;;;;;;6.75;4.13;;;;;;;;;;5052593;28;20079;-50
2020/12/08 01:39:00;;;;;;;7.57;4.30;;;;;;;;;;5043597;28;20385;-51
2020/12/08 01:41:26;;;;;;;7.45;3.50;;;;;;;;;;5032479;28;20389;-50
2020/12/08 01:43:52;;;;;;;6.10;3.53;;;;;;;;;;5037468;28;20106;-48
2020/12/08 01:46:20;;;;;;;4.80;2.97;;;;;;;;;;5039106;28;20377;-50
2020/12/08 01:48:47;;;;;;;5.60;3.70;;;;;;;;;;5032187;28;20122;-50
2020/12/08 01:51:16;;;;;;;5.35;3.25;;;;;;;;;;5031973;28;20083;-49
2020/12/08 01:53:42;;;;;;;6.05;3.33;;;;;;;;;;5033868;28;20052;-51
2020/12/08 01:56:09;;;;;;;6.25;3.60;;;;;;;;;;5033143;28;20045;-51
2020/12/08 01:58:36;;;;;;;5.43;3.25;;;;;;;;;;5036018;28;20028;-50
2020/12/08 02:01:02;;;;;;;5.90;3.60;;;;;;;;;;5034807;28;20033;-50
2020/12/08 02:03:28;;;;;;;8.02;4.00;;;;;;;;;;5039216;28;20461;-50
2020/12/08 02:05:54;;;;;;;6.50;4.00;;;;;;;;;;5031941;28;20037;-50
2020/12/08 02:08:30;;;;;;;8.98;4.40;;;;;;;;;;5032332;28;20061;-48
2020/12/08 02:10:56;;;;;;;6.15;3.60;;;;;;;;;;5031590;28;20532;-49
2020/12/08 02:13:23;;;;;;;7.43;3.65;;;;;;;;;;5032000;28;20020;-50
2020/12/08 02:15:49;;;;;;;5.38;3.25;;;;;;;;;;5031964;28;20070;-49
2020/12/08 02:18:15;;;;;;;4.75;2.80;;;;;;;;;;5031608;28;20029;-50
2020/12/08 02:20:42;;;;;;;7.18;3.20;;;;;;;;;;5031736;28;20018;-48
2020/12/08 02:23:08;;;;;;;6.45;3.30;;;;;;;;;;5031448;28;20424;-49
2020/12/08 02:25:34;;;;;;;7.40;3.63;;;;;;;;;;5031443;28;20045;-50
2020/12/08 02:28:01;;;;;;;6.05;3.58;;;;;;;;;;5031278;28;20029;-50
2020/12/08 02:30:27;;;;;;;7.28;3.90;;;;;;;;;;5034246;28;20017;-50
2020/12/08 02:32:53;;;;;;;4.82;3.40;;;;;;;;;;5034405;28;20026;-50
2020/12/08 02:35:19;;;;;;;6.22;3.35;;;;;;;;;;5033690;28;20152;-50
2020/12/08 02:37:45;;;;;;;6.95;3.65;;;;;;;;;;5030717;28;20392;-49
2020/12/08 02:40:11;;;;;;;7.70;4.10;;;;;;;;;;5034022;28;20029;-50
2020/12/08 02:42:38;;;;;;;7.10;4.13;;;;;;;;;;5035673;28;20022;-50
2020/12/08 02:45:04;;;;;;;7.03;3.85;;;;;;;;;;5034417;28;20025;-50
2020/12/08 02:47:30;;;;;;;7.68;3.90;;;;;;;;;;5035879;28;20060;-50
2020/12/08 02:49:56;;;;;;;7.65;4.10;;;;;;;;;;5042782;28;20032;-51
2020/12/08 02:52:23;;;;;;;8.15;4.18;;;;;;;;;;5035920;28;20484;-51
2020/12/08 02:54:49;;;;;;;9.50;4.05;;;;;;;;;;5035241;28;20111;-50
2020/12/08 02:57:16;;;;;;;7.20;3.92;;;;;;;;;;5035480;28;20049;-50
2020/12/08 02:59:43;;;;;;;7.38;3.83;;;;;;;;;;5035583;28;20056;-50
2020/12/08 03:02:09;;;;;;;7.53;3.80;;;;;;;;;;5035502;28;20450;-50
2020/12/08 03:04:35;;;;;;;5.75;3.10;;;;;;;;;;5042463;28;20361;-50
2020/12/08 03:07:01;;;;;;;6.45;3.30;;;;;;;;;;5055765;28;20426;-50
2020/12/08 03:09:27;;;;;;;6.75;3.33;;;;;;;;;;5055117;28;20024;-50
2020/12/08 03:11:53;;;;;;;5.07;3.35;;;;;;;;;;5055599;28;20051;-50
2020/12/08 03:14:19;;;;;;;5.32;3.22;;;;;;;;;;5055313;28;20017;-50
2020/12/08 03:16:45;;;;;;;7.70;3.33;;;;;;;;;;5055428;28;20048;-50
2020/12/08 03:19:11;;;;;;;5.32;3.22;;;;;;;;;;5055342;28;20058;-49
2020/12/08 03:21:38;;;;;;;6.82;3.42;;;;;;;;;;5055315;28;20021;-50
2020/12/08 03:24:05;;;;;;;5.50;2.97;;;;;;;;;;5055025;28;20036;-50
2020/12/08 03:26:31;;;;;;;5.10;3.15;;;;;;;;;;5055100;28;20403;-50
2020/12/08 03:28:57;;;;;;;5.47;2.92;;;;;;;;;;5055205;28;20025;-49
2020/12/08 03:31:23;;;;;;;5.88;2.92;;;;;;;;;;5055106;28;20380;-49
2020/12/08 03:33:49;;;;;;;5.93;3.20;;;;;;;;;;5043921;28;20028;-49
2020/12/08 03:36:18;;;;;;;4.40;2.45;;;;;;;;;;5050426;28;20047;-50
2020/12/08 03:38:45;;;;;;;4.40;2.80;;;;;;;;;;5054924;28;20013;-50
2020/12/08 03:41:11;;;;;;;6.13;2.80;;;;;;;;;;5055073;28;20063;-50
2020/12/08 03:43:37;;;;;;;6.88;2.58;;;;;;;;;;5054745;28;20024;-50
2020/12/08 03:46:03;;;;;;;3.90;2.42;;;;;;;;;;5052090;28;20025;-51
2020/12/08 03:48:29;;;;;;;4.50;2.65;;;;;;;;;;5052939;28;20434;-50
2020/12/08 03:50:55;;;;;;;5.53;3.20;;;;;;;;;;5053515;28;20485;-50
2020/12/08 03:53:21;;;;;;;4.60;2.90;;;;;;;;;;5054477;28;20069;-49
2020/12/08 03:55:47;;;;;;;4.72;2.85;;;;;;;;;;5053568;28;20079;-50
2020/12/08 03:58:13;;;;;;;6.03;3.03;;;;;;;;;;5054626;28;20033;-50
2020/12/08 04:00:39;;;;;;;6.60;3.25;;;;;;;;;;5054006;28;20031;-50
2020/12/08 04:03:05;;;;;;;8.10;4.45;;;;;;;;;;5045986;28;20025;-50
2020/12/08 04:05:31;;;;;;;4.85;3.03;;;;;;;;;;5048956;28;20040;-50
2020/12/08 04:07:57;;;;;;;5.15;2.90;;;;;;;;;;5054623;28;20021;-50
2020/12/08 04:10:23;;;;;;;4.65;2.70;;;;;;;;;;5054195;28;20111;-49
2020/12/08 04:12:49;;;;;;;5.07;2.60;;;;;;;;;;5054375;28;20049;-50
2020/12/08 04:15:15;;;;;;;4.20;2.75;;;;;;;;;;5054409;28;20029;-50
2020/12/08 04:17:41;;;;;;;5.40;2.80;;;;;;;;;;5054088;28;20104;-50
2020/12/08 04:20:08;;;;;;;5.68;2.90;;;;;;;;;;5054330;28;20545;-50
2020/12/08 04:22:34;;;;;;;5.22;2.35;;;;;;;;;;5053781;28;20033;-50
2020/12/08 04:25:00;;;;;;;5.63;2.75;;;;;;;;;;5054023;28;20131;-51
2020/12/08 04:27:26;;;;;;;5.60;2.70;;;;;;;;;;5050078;28;20504;-50
2020/12/08 04:29:52;;;;;;;6.03;2.63;;;;;;;;;;5035663;28;20048;-50
2020/12/08 04:32:18;;;;;;;6.05;3.10;;;;;;;;;;5037423;28;20067;-50
2020/12/08 04:34:44;;;;;;;5.75;2.95;;;;;;;;;;5042101;28;20025;-50
2020/12/08 04:37:11;;;;;;;4.32;2.83;;;;;;;;;;5046740;28;20034;-50
2020/12/08 04:39:37;;;;;;;5.80;2.80;;;;;;;;;;5046820;28;20047;-50
2020/12/08 04:42:03;;;;;;;6.82;3.15;;;;;;;;;;5049741;28;20040;-49
2020/12/08 04:44:30;;;;;;;7.10;2.95;;;;;;;;;;5053724;28;20776;-50
2020/12/08 04:46:57;;;;;;;5.53;3.30;;;;;;;;;;5039059;28;20021;-49
2020/12/08 04:49:26;;;;;;;4.13;2.67;;;;;;;;;;5053491;28;20031;-49
2020/12/08 04:51:52;;;;;;;5.50;3.00;;;;;;;;;;5053289;28;20082;-50
2020/12/08 04:54:18;;;;;;;5.25;3.10;;;;;;;;;;5053151;28;20416;-50
2020/12/08 04:56:45;;;;;;;6.68;3.30;;;;;;;;;;5053032;28;20087;-50
2020/12/08 04:59:21;;;;;;;6.05;3.10;;;;;;;;;;5053166;28;20052;-50
2020/12/08 05:01:47;;;;;;;8.75;3.75;;;;;;;;;;5053467;28;20372;-50
2020/12/08 05:04:13;;;;;;;5.57;3.05;;;;;;;;;;5038848;28;20032;-50
2020/12/08 05:06:39;;;;;;;6.30;3.05;;;;;;;;;;5052796;28;20055;-50
2020/12/08 05:09:06;;;;;;;4.78;2.67;;;;;;;;;;5048769;28;20052;-50
2020/12/08 05:11:32;;;;;;;5.20;2.97;;;;;;;;;;5051311;28;20527;-49
2020/12/08 05:14:02;;;;;;;6.75;3.42;;;;;;;;;;5042843;28;20026;-48
2020/12/08 05:16:28;;;;;;;6.05;3.75;;;;;;;;;;5032387;28;20067;-49
2020/12/08 05:19:05;;;;;;;6.28;3.63;;;;;;;;;;5032515;28;20053;-48
2020/12/08 05:21:31;;;;;;;7.03;3.28;;;;;;;;;;5032494;28;20025;-50
2020/12/08 05:23:57;;;;;;;8.48;4.10;;;;;;;;;;5032513;28;20104;-48
2020/12/08 05:26:23;;;;;;;7.90;3.60;;;;;;;;;;5034867;28;20495;-50
2020/12/08 05:28:58;;;;;;;8.20;4.00;;;;;;;;;;5032920;28;20041;-49
2020/12/08 05:31:26;;;;;;;7.55;3.80;;;;;;;;;;5037743;28;20207;-50
2020/12/08 05:33:55;;;;;;;9.43;4.93;;;;;;;;;;5037029;28;20029;-49
2020/12/08 05:36:21;;;;;;;8.45;4.28;;;;;;;;;;5032433;28;20033;-49
2020/12/08 05:38:49;;;;;;;10.52;4.68;;;;;;;;;;5041361;28;20059;-50
2020/12/08 05:41:15;;;;;;;8.30;4.38;;;;;;;;;;5037169;28;20030;-49
2020/12/08 05:43:42;;;;;;;8.25;4.63;;;;;;;;;;5032642;28;20021;-50
2020/12/08 05:46:09;;;;;;;12.30;5.85;;;;;;;;;;5032655;28;20029;-49
2020/12/08 05:48:36;;;;;;;10.63;4.68;;;;;;;;;;5032401;28;20029;-49
2020/12/08 05:51:02;;;;;;;6.85;4.00;;;;;;;;;;5032624;28;20029;-51
2020/12/08 05:53:29;;;;;;;11.95;5.78;;;;;;;;;;5032148;28;20053;-50
2020/12/08 05:56:07;;;;;;;9.05;4.18;;;;;;;;;;5032403;28;20046;-50
2020/12/08 05:58:33;;;;;;;10.88;4.93;;;;;;;;;;5042348;28;20026;-51
2020/12/08 06:01:06;;;;;;;7.28;4.00;;;;;;;;;;5040280;28;20037;-50
2020/12/08 06:03:32;;;;;;;8.55;4.40;;;;;;;;;;5032133;28;20036;-50
2020/12/08 06:06:08;;;;;;;11.38;5.68;;;;;;;;;;5032242;28;20017;-50
2020/12/08 06:08:44;;;;;;;10.32;5.07;;;;;;;;;;5032264;28;20021;-50
2020/12/08 06:11:10;;;;;;;8.77;5.13;;;;;;;;;;5032312;28;20022;-50
2020/12/08 06:13:40;;;;;;;11.45;4.97;;;;;;;;;;5031929;28;20025;-50
2020/12/08 06:16:16;;;;;;;8.77;4.95;;;;;;;;;;5032260;28;20440;-49
2020/12/08 06:18:43;;;;;;;13.10;6.65;;;;;;;;;;5031710;28;20033;-49
2020/12/08 06:21:21;;;;;;;9.35;5.53;;;;;;;;;;5032385;28;20104;-50
2020/12/08 06:23:48;;;;;;;13.23;7.00;;;;;;;;;;5032141;28;20117;-50
2020/12/08 06:26:20;;;;;;;15.52;8.00;;;;;;;;;;5032232;28;20025;-50
2020/12/08 06:28:46;;;;;;;13.65;7.20;;;;;;;;;;5035352;28;20366;-50
2020/12/08 06:31:13;;;;;;;15.95;7.68;;;;;;;;;;5032315;28;20028;-50
2020/12/08 06:33:49;;;;;;;17.67;7.72;;;;;;;;;;5032270;28;20032;-49
2020/12/08 06:36:34;;;;;;;17.60;9.35;;;;;;;;;;5031633;28;20079;-50
2020/12/08 06:39:01;;;;;;;16.02;7.70;;;;;;;;;;5042375;28;20025;-50
2020/12/08 06:41:34;;;;;;;14.18;7.47;;;;;;;;;;5051764;28;20033;-51
2020/12/08 06:44:01;;;;;;;13.88;7.75;;;;;;;;;;5052083;28;20025;-51
2020/12/08 06:46:27;;;;;;;16.60;7.30;;;;;;;;;;5052168;28;20048;-50
2020/12/08 06:49:07;;;;;;;16.42;9.82;;;;;;;;;;5051931;28;20028;-50
2020/12/08 06:51:34;;;;;;;14.02;7.70;;;;;;;;;;5050806;28;20495;-50
2020/12/08 06:54:00;;;;;;;17.98;8.20;;;;;;;;;;5043011;28;20049;-50
2020/12/08 06:56:28;;;;;;;15.93;7.30;;;;;;;;;;5051444;28;20037;-51
2020/12/08 06:58:54;;;;;;;15.88;8.85;;;;;;;;;;5037975;28;20025;-50
2020/12/08 07:01:20;;;;;;;22.55;11.25;;;;;;;;;;5051710;28;20021;-50
2020/12/08 07:03:47;;;;;;;14.68;7.32;;;;;;;;;;5051607;28;20491;-50
2020/12/08 07:06:13;;;;;;;14.43;7.95;;;;;;;;;;5051866;28;20087;-50
2020/12/08 07:08:41;;;;;;;34.20;18.23;;;;;;;;;;5042835;28;20075;-51
2020/12/08 07:11:16;;;;;;;52.72;16.70;;;;;;;;;;5051494;28;20032;-49
2020/12/08 07:13:42;;;;;;;22.25;10.75;;;;;;;;;;5051743;28;20028;-51
2020/12/08 07:16:13;;;;;;;57.22;36.30;;;;;;;;;;5043357;28;20073;-50
2020/12/08 07:18:39;;;;;;;21.38;16.15;;;;;;;;;;5047487;28;20376;-50
2020/12/08 07:21:06;;;;;;;17.45;9.18;;;;;;;;;;5049884;28;20350;-48
2020/12/08 07:23:39;;;;;;;12.35;7.80;;;;;;;;;;5037490;28;20025;-51
2020/12/08 07:26:05;;;;;;;11.18;6.35;;;;;;;;;;5051311;28;20033;-50
2020/12/08 07:28:32;;;;;;;10.50;6.18;;;;;;;;;;5048498;28;20021;-50
2020/12/08 07:30:58;;;;;;;9.95;6.10;;;;;;;;;;5040225;28;20033;-50
2020/12/08 07:33:31;;;;;;;10.70;6.40;;;;;;;;;;5054965;28;20028;-51
2020/12/08 07:35:57;;;;;;;13.35;7.63;;;;;;;;;;5055000;28;20108;-51
2020/12/08 07:38:23;;;;;;;13.32;7.63;;;;;;;;;;5040775;28;20083;-51
2020/12/08 07:40:49;;;;;;;15.13;7.30;;;;;;;;;;5055043;28;20036;-50
2020/12/08 07:43:15;;;;;;;12.23;7.07;;;;;;;;;;5054733;28;20499;-50
2020/12/08 07:45:43;;;;;;;16.08;8.50;;;;;;;;;;5054826;28;20024;-51
2020/12/08 07:48:10;;;;;;;12.90;7.43;;;;;;;;;;5054778;28;20111;-51
2020/12/08 07:50:36;;;;;;;14.18;7.88;;;;;;;;;;5054581;28;20623;-50
2020/12/08 07:53:03;;;;;;;16.90;9.32;;;;;;;;;;5053930;28;20645;-51
2020/12/08 07:55:30;;;;;;;11.82;7.25;;;;;;;;;;5054261;28;20037;-51
2020/12/08 07:57:57;;;;;;;12.57;7.80;;;;;;;;;;5054360;28;20427;-51
2020/12/08 08:00:23;;;;;;;15.63;8.68;;;;;;;;;;5053897;28;20112;-50
2020/12/08 08:02:49;;;;;;;17.50;9.07;;;;;;;;;;5054113;28;20028;-50
2020/12/08 08:05:16;;;;;;;13.23;7.80;;;;;;;;;;5053982;28;20036;-51
2020/12/08 08:07:42;;;;;;;15.38;7.90;;;;;;;;;;5053981;28;20063;-52
2020/12/08 08:10:08;;;;;;;13.88;8.10;;;;;;;;;;5053894;28;20025;-51
2020/12/08 08:12:34;;;;;;;15.57;9.23;;;;;;;;;;5053617;28;20040;-51
2020/12/08 08:15:00;;;;;;;17.23;8.52;;;;;;;;;;5053801;28;20052;-51
2020/12/08 08:17:26;;;;;;;19.33;9.80;;;;;;;;;;5053664;28;20037;-49
2020/12/08 08:19:52;;;;;;;14.23;8.57;;;;;;;;;;5053910;28;20036;-50
2020/12/08 08:22:18;;;;;;;13.15;7.30;;;;;;;;;;5053640;28;20039;-51
2020/12/08 08:24:44;;;;;;;16.17;9.05;;;;;;;;;;5053728;28;20024;-51
2020/12/08 08:27:10;;;;;;;11.15;6.88;;;;;;;;;;5053768;28;20056;-50
2020/12/08 08:29:36;;;;;;;12.85;8.02;;;;;;;;;;5053736;28;20020;-51
2020/12/08 08:32:02;;;;;;;14.98;8.23;;;;;;;;;;5053568;28;20096;-48
2020/12/08 08:34:28;;;;;;;13.52;7.93;;;;;;;;;;5053630;28;20068;-51
2020/12/08 08:36:55;;;;;;;13.15;7.47;;;;;;;;;;5046818;28;20053;-50
2020/12/08 08:39:22;;;;;;;33.13;14.82;;;;;;;;;;5046756;28;20028;-52
2020/12/08 08:41:49;;;;;;;21.13;10.70;;;;;;;;;;5053035;28;20480;-51
2020/12/08 08:44:15;;;;;;;17.38;10.35;;;;;;;;;;5053746;28;20039;-51
2020/12/08 08:46:41;;;;;;;16.48;9.95;;;;;;;;;;5053422;28;20025;-52
2020/12/08 08:49:14;;;;;;;21.77;11.02;;;;;;;;;;5053835;28;20479;-51
2020/12/08 08:51:47;;;;;;;20.83;11.27;;;;;;;;;;5053427;28;20031;-51
2020/12/08 08:54:13;;;;;;;21.50;10.75;;;;;;;;;;5053166;28;20053;-51
2020/12/08 08:56:40;;;;;;;19.33;9.48;;;;;;;;;;5043577;28;20053;-51
2020/12/08 08:59:06;;;;;;;27.60;13.90;;;;;;;;;;5033444;28;20037;-51
2020/12/08 09:01:33;;;;;;;37.03;17.13;;;;;;;;;;5037898;28;20108;-53
2020/12/08 09:03:59;;;;;;;24.95;12.98;;;;;;;;;;5053339;28;20021;-52
2020/12/08 09:06:25;;;;;;;35.92;17.30;;;;;;;;;;5053159;28;20025;-51
2020/12/08 09:08:51;;;;;;;33.88;17.60;;;;;;;;;;5053286;28;20037;-52
2020/12/08 09:11:18;;;;;;;65.43;28.83;;;;;;;;;;5053212;28;20392;-51
2020/12/08 09:13:44;;;;;;;24.75;15.05;;;;;;;;;;5042948;28;20029;-52
2020/12/08 09:16:10;;;;;;;21.70;13.35;;;;;;;;;;5048916;28;20032;-51
2020/12/08 09:18:36;;;;;;;20.83;11.75;;;;;;;;;;5053001;28;20039;-52
2020/12/08 09:21:03;;;;;;;15.73;9.77;;;;;;;;;;5053018;28;20033;-51
2020/12/08 09:23:29;;;;;;;15.07;9.80;;;;;;;;;;5052750;28;20104;-51
2020/12/08 09:25:57;;;;;;;13.98;9.30;;;;;;;;;;5052868;28;20032;-51
2020/12/08 09:28:24;;;;;;;11.63;7.57;;;;;;;;;;5052249;28;20039;-50
2020/12/08 09:30:50;;;;;;;14.07;9.32;;;;;;;;;;5042469;28;20025;-52
2020/12/08 09:33:16;;;;;;;19.45;11.68;;;;;;;;;;5048984;28;20032;-51
2020/12/08 09:35:42;;;;;;;14.45;9.60;;;;;;;;;;5052616;28;20025;-50
2020/12/08 09:38:09;;;;;;;15.55;10.20;;;;;;;;;;5051114;28;20051;-51
2020/12/08 09:40:35;;;;;;;15.13;9.98;;;;;;;;;;5050519;28;20075;-52
2020/12/08 09:43:02;;;;;;;14.70;8.90;;;;;;;;;;5051875;28;20447;-51
2020/12/08 09:45:28;;;;;;;14.02;8.60;;;;;;;;;;5052853;28;20045;-52
2020/12/08 09:47:54;;;;;;;15.10;10.15;;;;;;;;;;5052620;28;20032;-51
2020/12/08 09:50:20;;;;;;;17.75;10.52;;;;;;;;;;5052396;28;20036;-51
2020/12/08 09:52:46;;;;;;;19.50;10.68;;;;;;;;;;5052119;28;20046;-51
2020/12/08 09:55:12;;;;;;;13.40;8.60;;;;;;;;;;5051656;28;20104;-51
2020/12/08 09:57:38;;;;;;;16.90;10.13;;;;;;;;;;5052199;28;20086;-51
2020/12/08 10:00:05;;;;;;;14.68;9.35;;;;;;;;;;5052374;28;20025;-52
2020/12/08 10:02:31;;;;;;;14.50;9.52;;;;;;;;;;5052668;28;20353;-52
2020/12/08 10:04:57;;;;;;;13.32;8.90;;;;;;;;;;5042109;28;20036;-51
2020/12/08 10:07:24;;;;;;;12.02;8.80;;;;;;;;;;5048448;28;20029;-53
2020/12/08 10:09:50;;;;;;;12.27;9.05;;;;;;;;;;5052243;28;20100;-51
2020/12/08 10:12:17;;;;;;;14.07;10.68;;;;;;;;;;5051987;28;20056;-51
2020/12/08 10:14:43;;;;;;;13.15;9.15;;;;;;;;;;5052307;28;20373;-53
2020/12/08 10:17:13;;;;;;;14.27;9.52;;;;;;;;;;5052196;28;20036;-52
2020/12/08 10:19:40;;;;;;;14.20;9.98;;;;;;;;;;5052121;28;20014;-50
2020/12/08 10:22:06;;;;;;;17.52;13.50;;;;;;;;;;5051844;28;20029;-53
2020/12/08 10:24:32;;;;;;;15.45;11.45;;;;;;;;;;5051470;28;20654;-52
2020/12/08 10:26:59;;;;;;;20.23;14.05;;;;;;;;;;5051911;28;20053;-51
2020/12/08 10:29:25;;;;;;;18.80;11.63;;;;;;;;;;5051624;28;20028;-52
2020/12/08 10:31:51;;;;;;;18.15;10.77;;;;;;;;;;5051864;28;20021;-53
2020/12/08 10:34:18;;;;;;;15.65;10.45;;;;;;;;;;5051597;28;20491;-51
2020/12/08 10:36:45;;;;;;;14.48;10.82;;;;;;;;;;5051392;28;20484;-52
2020/12/08 10:39:11;;;;;;;13.50;9.95;;;;;;;;;;5051761;28;20025;-51
2020/12/08 10:41:37;;;;;;;14.60;10.18;;;;;;;;;;5051810;28;20445;-52
2020/12/08 10:44:06;;;;;;;15.60;11.07;;;;;;;;;;5051823;28;20021;-52
2020/12/08 10:46:32;;;;;;;14.10;10.30;;;;;;;;;;5051941;28;20365;-52
2020/12/08 10:48:58;;;;;;;14.77;11.30;;;;;;;;;;5042001;28;20025;-51
2020/12/08 10:51:24;;;;;;;17.67;11.82;;;;;;;;;;5031604;28;20041;-52
2020/12/08 10:53:50;;;;;;;21.50;14.27;;;;;;;;;;5031466;28;20560;-52
2020/12/08 10:56:18;;;;;;;26.52;16.60;;;;;;;;;;5038952;28;20492;-52
2020/12/08 10:58:44;;;;;;;19.88;12.88;;;;;;;;;;5038138;28;20446;-51
2020/12/08 11:01:10;;;;;;;19.45;11.48;;;;;;;;;;5031555;28;20077;-51
2020/12/08 11:03:36;;;;;;;16.05;12.07;;;;;;;;;;5031197;28;20057;-51
2020/12/08 11:06:02;;;;;;;18.10;13.30;;;;;;;;;;5039040;28;20032;-53
2020/12/08 11:08:28;;;;;;;16.40;11.25;;;;;;;;;;5055232;28;20037;-51
2020/12/08 11:10:54;;;;;;;15.85;11.77;;;;;;;;;;5055221;28;20100;-52
2020/12/08 11:13:20;;;;;;;24.17;17.27;;;;;;;;;;5055123;28;20107;-49
2020/12/08 11:15:46;;;;;;;21.35;15.25;;;;;;;;;;5054834;28;20065;-52
2020/12/08 11:18:12;;;;;;;27.60;19.95;;;;;;;;;;5055216;28;20018;-52
2020/12/08 11:20:38;;;;;;;20.70;15.15;;;;;;;;;;5054927;28;20078;-51
2020/12/08 11:23:04;;;;;;;16.35;12.55;;;;;;;;;;5051989;28;20077;-54
2020/12/08 11:25:30;;;;;;;17.60;14.50;;;;;;;;;;5039973;28;20057;-51
2020/12/08 11:27:56;;;;;;;15.18;11.38;;;;;;;;;;5034652;28;20060;-51
2020/12/08 11:30:22;;;;;;;14.48;10.73;;;;;;;;;;5034327;28;20546;-53
2020/12/08 11:32:49;;;;;;;15.13;12.15;;;;;;;;;;5042875;28;20048;-49
2020/12/08 11:35:15;;;;;;;17.55;13.32;;;;;;;;;;5048631;28;20031;-52
2020/12/08 11:37:41;;;;;;;19.38;14.25;;;;;;;;;;5034337;28;20030;-53
2020/12/08 11:40:07;;;;;;;20.25;14.38;;;;;;;;;;5034379;28;20095;-51
2020/12/08 11:42:33;;;;;;;19.15;14.40;;;;;;;;;;5034134;28;20087;-51
2020/12/08 11:45:00;;;;;;;20.80;15.45;;;;;;;;;;5034173;28;20028;-51
2020/12/08 11:47:26;;;;;;;19.50;11.80;;;;;;;;;;5034357;28;20060;-50
2020/12/08 11:49:52;;;;;;;17.55;12.75;;;;;;;;;;5034294;28;20121;-52
2020/12/08 11:52:18;;;;;;;21.33;15.57;;;;;;;;;;5034189;28;20377;-52
2020/12/08 11:54:44;;;;;;;19.83;14.55;;;;;;;;;;5033967;28;20500;-52
2020/12/08 11:57:10;;;;;;;20.10;14.45;;;;;;;;;;5040889;28;20041;-53
2020/12/08 11:59:36;;;;;;;21.35;14.23;;;;;;;;;;5051096;28;20021;-52
2020/12/08 12:02:02;;;;;;;19.25;14.23;;;;;;;;;;5043612;28;20033;-52
2020/12/08 12:04:28;;;;;;;16.55;12.95;;;;;;;;;;5037765;28;20025;-53
2020/12/08 12:06:54;;;;;;;17.33;13.45;;;;;;;;;;5043550;28;20503;-53
2020/12/08 12:09:20;;;;;;;17.27;12.45;;;;;;;;;;5033498;28;20021;-52
2020/12/08 12:11:47;;;;;;;21.02;15.98;;;;;;;;;;5034011;28;20033;-53
2020/12/08 12:14:13;;;;;;;15.43;11.50;;;;;;;;;;5047961;28;20021;-52
2020/12/08 12:16:39;;;;;;;19.98;15.20;;;;;;;;;;5033397;28;20040;-52
2020/12/08 12:19:05;;;;;;;20.42;14.85;;;;;;;;;;5036877;28;20420;-55
2020/12/08 12:21:32;;;;;;;15.65;11.63;;;;;;;;;;5034119;28;20048;-50
2020/12/08 12:23:58;;;;;;;17.13;12.40;;;;;;;;;;5033821;28;20030;-52
2020/12/08 12:26:24;;;;;;;20.20;14.63;;;;;;;;;;5034295;28;20024;-53
2020/12/08 12:28:52;;;;;;;17.15;12.30;;;;;;;;;;5033864;28;20535;-52
2020/12/08 12:31:18;;;;;;;21.33;14.32;;;;;;;;;;5036907;28;20362;-51
2020/12/08 12:33:44;;;;;;;29.55;19.13;;;;;;;;;;5033315;28;20116;-49
2020/12/08 12:36:10;;;;;;;18.27;12.80;;;;;;;;;;5033355;28;20038;-52
2020/12/08 12:38:36;;;;;;;21.75;14.40;;;;;;;;;;5033233;28;20018;-53
2020/12/08 12:41:02;;;;;;;23.02;15.98;;;;;;;;;;5033419;28;20059;-52
2020/12/08 12:43:28;;;;;;;19.05;13.38;;;;;;;;;;5033963;28;20021;-53
2020/12/08 12:45:54;;;;;;;21.63;15.98;;;;;;;;;;5033234;28;20033;-52
2020/12/08 12:48:20;;;;;;;22.73;15.98;;;;;;;;;;5033297;28;20041;-53
2020/12/08 12:50:46;;;;;;;14.38;11.63;;;;;;;;;;5033035;28;20029;-52
2020/12/08 12:53:12;;;;;;;18.30;13.52;;;;;;;;;;5033123;28;20120;-53
2020/12/08 12:55:39;;;;;;;15.82;12.80;;;;;;;;;;5033402;28;20033;-52
2020/12/08 12:58:05;;;;;;;14.32;11.20;;;;;;;;;;5033416;28;20056;-51
2020/12/08 13:00:31;;;;;;;17.88;13.32;;;;;;;;;;5032748;28;20036;-50
2020/12/08 13:02:57;;;;;;;15.50;11.85;;;;;;;;;;5032853;28;20025;-52
2020/12/08 13:05:23;;;;;;;15.98;11.70;;;;;;;;;;5046400;28;20032;-52
2020/12/08 13:07:49;;;;;;;14.57;10.73;;;;;;;;;;5033066;28;20119;-52
2020/12/08 13:10:15;;;;;;;17.38;12.30;;;;;;;;;;5032904;28;20029;-51
2020/12/08 13:12:41;;;;;;;15.60;10.35;;;;;;;;;;5034679;28;20074;-50
2020/12/08 13:15:07;;;;;;;13.43;10.23;;;;;;;;;;5032067;28;20111;-52
2020/12/08 13:17:33;;;;;;;13.30;10.25;;;;;;;;;;5034248;28;20092;-51
2020/12/08 13:19:59;;;;;;;16.25;11.90;;;;;;;;;;5033100;28;20496;-50
2020/12/08 13:22:25;;;;;;;19.08;12.05;;;;;;;;;;5032834;28;20042;-51
2020/12/08 13:24:51;;;;;;;16.88;12.23;;;;;;;;;;5038696;28;20033;-52
2020/12/08 13:27:17;;;;;;;16.52;12.20;;;;;;;;;;5036522;28;20476;-50
2020/12/08 13:29:43;;;;;;;17.80;12.70;;;;;;;;;;5047305;28;20491;-52
2020/12/08 13:32:09;;;;;;;14.63;11.10;;;;;;;;;;5037190;28;20047;-51
2020/12/08 13:34:35;;;;;;;14.88;10.45;;;;;;;;;;5041521;28;20036;-52
2020/12/08 13:37:01;;;;;;;15.73;11.90;;;;;;;;;;5041994;28;20051;-52
2020/12/08 13:39:27;;;;;;;16.05;11.55;;;;;;;;;;5036061;28;20026;-50
2020/12/08 13:41:53;;;;;;;16.13;11.77;;;;;;;;;;5032169;28;20025;-52
2020/12/08 13:44:19;;;;;;;15.80;11.80;;;;;;;;;;5032146;28;20029;-52
2020/12/08 13:46:46;;;;;;;17.67;11.10;;;;;;;;;;5046191;28;20434;-50
2020/12/08 13:49:12;;;;;;;15.07;10.93;;;;;;;;;;5032368;28;20096;-50
2020/12/08 13:51:41;;;;;;;16.92;12.07;;;;;;;;;;5032405;28;20025;-51
2020/12/08 13:54:07;;;;;;;17.27;12.15;;;;;;;;;;5032067;28;20096;-52
2020/12/08 13:56:33;;;;;;;22.10;14.88;;;;;;;;;;5032362;28;20656;-51
2020/12/08 13:58:59;;;;;;;18.65;13.68;;;;;;;;;;5032026;28;20045;-51
2020/12/08 14:01:25;;;;;;;18.65;13.65;;;;;;;;;;5034317;28;20021;-49
2020/12/08 14:03:51;;;;;;;22.20;13.52;;;;;;;;;;5042648;28;20105;-49
2020/12/08 14:06:17;;;;;;;19.98;13.23;;;;;;;;;;5032011;28;20076;-51
2020/12/08 14:08:43;;;;;;;19.52;13.43;;;;;;;;;;5031838;28;20079;-49
2020/12/08 14:11:10;;;;;;;25.83;16.42;;;;;;;;;;5031883;28;20032;-50
2020/12/08 14:13:36;;;;;;;20.58;14.05;;;;;;;;;;5031122;28;20138;-50
2020/12/08 14:16:03;;;;;;;26.90;17.75;;;;;;;;;;5031814;28;20608;-50
2020/12/08 14:18:29;;;;;;;25.48;15.75;;;;;;;;;;5037726;28;20408;-50
2020/12/08 14:20:55;;;;;;;31.65;18.08;;;;;;;;;;5049972;28;20053;-49
2020/12/08 14:23:23;;;;;;;24.20;15.88;;;;;;;;;;5039888;28;20040;-49
2020/12/08 14:25:50;;;;;;;25.33;16.52;;;;;;;;;;5051494;28;20068;-50
2020/12/08 14:28:16;;;;;;;20.02;13.73;;;;;;;;;;5051969;28;20029;-49